Time;durP1;ratioP1;P1;durP2;ratioP2;P2;SDS_P1;SDS_P2;PMS_P1;PMS_P2;Temp;Humidity;BMP_temperature;BMP_pressure;BME280_temperature;BME280_humidity;BME280_pressure;Samples;Min_cycle;Max_cycle;Signal;HPM_P1;HPM_P2
2024/02/11 00:00:22;;;;;;;;;;;;;;;-144.99;100.00;52609.13;5077515;28;20174;-69
2024/02/11 00:02:51;;;;;;;;;;;;;;;-144.99;100.00;52578.53;5085502;28;19913;-70
2024/02/11 00:05:17;;;;;;;;;;;;;;;-144.99;100.00;52605.03;5084472;28;19928;-69
2024/02/11 00:07:44;;;;;;;;;;;;;;;-144.99;100.00;52625.44;5088008;28;19984;-70
2024/02/11 00:10:11;;;;;;;;;;;;;;;-144.99;100.00;52582.63;5076939;22;20002;-69
2024/02/11 00:12:38;;;;;;;;;;;;;;;-144.99;100.00;52594.84;5062579;28;19929;-70
2024/02/11 00:15:08;;;;;;;;;;;;;;;-144.99;100.00;52627.47;5061523;28;20356;-70
2024/02/11 00:17:35;;;;;;;;;;;;;;;-144.99;100.00;52574.47;5060327;28;20388;-69
2024/02/11 00:20:05;;;;;;;;;;;;;;;-144.99;100.00;52603.00;5052089;28;19987;-69
2024/02/11 00:22:33;;;;;;;;;;;;;;;-144.99;100.00;52566.31;5045649;28;20016;-69
2024/02/11 00:25:00;;;;;;;;;;;;;;;-144.99;100.00;52543.91;5041965;28;19934;-70
2024/02/11 00:27:27;;;;;;;;;;;;;;;-144.99;100.00;52574.47;5041217;28;20292;-69
2024/02/11 00:29:53;;;;;;;;;;;;;;;-144.99;100.00;52623.38;5042439;28;19928;-69
2024/02/11 00:32:20;;;;;;;;;;;;;;;-144.99;100.00;52611.16;5044419;28;19929;-68
2024/02/11 00:34:46;;;;;;;;;;;;;;;-144.99;100.00;52566.31;5044460;28;20047;-68
2024/02/11 00:37:14;;;;;;;;;;;;;;;-144.99;100.00;52598.94;5035218;28;19933;-71
2024/02/11 00:39:41;;;;;;;;;;;;;;;-144.99;100.00;52607.09;5044930;28;20411;-69
2024/02/11 00:42:07;;;;;;;;;;;;;;;-144.99;100.00;52570.38;5045787;28;19935;-70
2024/02/11 00:44:34;;;;;;;;;;;;;;;-144.99;100.00;52572.44;5043547;28;19924;-69
2024/02/11 00:47:02;;;;;;;;;;;;;;;-144.99;100.00;52586.69;5040168;28;19925;-70
2024/02/11 00:49:31;;;;;;;;;;;;;;;-144.99;100.00;52545.94;5045368;28;19925;-69
2024/02/11 00:51:58;;;;;;;;;;;;;;;-144.99;100.00;52598.94;5047002;28;20392;-68
2024/02/11 00:54:26;;;;;;;;;;;;;;;-144.99;100.00;52554.09;5043256;28;20406;-68
2024/02/11 00:56:54;;;;;;;;;;;;;;;-144.99;100.00;52570.38;5037869;28;20415;-69
2024/02/11 00:59:20;;;;;;;;;;;;;;;-144.99;100.00;52603.00;5039353;28;20247;-68
2024/02/11 01:01:48;;;;;;;;;;;;;;;-144.99;100.00;52594.84;5040893;28;19975;-68
2024/02/11 01:04:14;;;;;;;;;;;;;;;-144.99;100.00;52615.25;5041360;28;19929;-69
2024/02/11 01:06:41;;;;;;;;;;;;;;;-144.99;100.00;52627.47;5042993;28;19925;-69
2024/02/11 01:09:07;;;;;;;;;;;;;;;-144.99;100.00;52598.94;5038467;28;20321;-69
2024/02/11 01:11:35;;;;;;;;;;;;;;;-144.99;100.00;52598.94;5044147;28;20377;-69
2024/02/11 01:14:02;;;;;;;;;;;;;;;-144.99;100.00;52586.69;5039337;28;19925;-69
2024/02/11 01:16:28;;;;;;;;;;;;;;;-144.99;100.00;52558.16;5041265;28;19924;-69
2024/02/11 01:18:55;;;;;;;;;;;;;;;-144.99;100.00;52594.84;5040978;28;19929;-69
2024/02/11 01:21:23;;;;;;;;;;;;;;;-144.99;100.00;52578.53;5044139;28;20026;-69
2024/02/11 01:23:50;;;;;;;;;;;;;;;-144.99;100.00;52600.97;5041883;28;20031;-69
2024/02/11 01:26:16;;;;;;;;;;;;;;;-144.99;100.00;52566.31;5046379;28;19932;-69
2024/02/11 01:28:44;;;;;;;;;;;;;;;-144.99;100.00;52562.25;5053182;28;20824;-68
2024/02/11 01:31:11;;;;;;;;;;;;;;;-144.99;100.00;52590.78;5051696;28;19979;-69
2024/02/11 01:33:37;;;;;;;;;;;;;;;-144.99;100.00;52582.63;5045654;28;19982;-69
2024/02/11 01:36:04;;;;;;;;;;;;;;;-144.99;100.00;52562.25;5038627;28;19933;-70
2024/02/11 01:38:31;;;;;;;;;;;;;;;-144.99;100.00;52598.94;5042388;28;19967;-69
2024/02/11 01:40:57;;;;;;;;;;;;;;;-144.99;100.00;52570.38;5038119;28;20018;-70
2024/02/11 01:43:25;;;;;;;;;;;;;;;-144.99;100.00;52592.81;5048325;28;19925;-70
2024/02/11 01:45:53;;;;;;;;;;;;;;;-144.99;100.00;52566.31;5043157;28;19963;-69
2024/02/11 01:48:20;;;;;;;;;;;;;;;-144.99;100.00;52611.16;5040481;28;19951;-68
2024/02/11 01:50:46;;;;;;;;;;;;;;;-144.99;100.00;52562.25;5039951;28;19936;-67
2024/02/11 01:53:13;;;;;;;;;;;;;;;-144.99;100.00;52586.69;5040942;28;19929;-68
2024/02/11 01:55:41;;;;;;;;;;;;;;;-144.99;100.00;52570.38;5041191;28;19936;-68
2024/02/11 01:58:08;;;;;;;;;;;;;;;-144.99;100.00;52586.69;5040360;28;19928;-69
2024/02/11 02:00:35;;;;;;;;;;;;;;;-144.99;100.00;52572.44;5037600;28;20355;-68
2024/02/11 02:03:04;;;;;;;;;;;;;;;-144.99;100.00;52574.47;5038314;28;19978;-68
2024/02/11 02:05:30;;;;;;;;;;;;;;;-144.99;100.00;52529.63;5042440;28;19929;-69
2024/02/11 02:07:59;;;;;;;;;;;;;;;-144.99;100.00;52554.09;5037866;28;20078;-67
2024/02/11 02:10:25;;;;;;;;;;;;;;;-144.99;100.00;52582.63;5039353;28;19928;-69
2024/02/11 02:12:52;;;;;;;;;;;;;;;-144.99;100.00;52613.19;5038244;28;20327;-69
2024/02/11 02:15:18;;;;;;;;;;;;;;;-144.99;100.00;52594.84;5037132;28;20015;-70
2024/02/11 02:17:45;;;;;;;;;;;;;;;-144.99;100.00;52570.38;5043378;28;20203;-70
2024/02/11 02:20:14;;;;;;;;;;;;;;;-144.99;100.00;52582.63;5038287;28;19966;-69
2024/02/11 02:22:42;;;;;;;;;;;;;;;-144.99;100.00;52547.97;5035769;28;19929;-69
2024/02/11 02:25:09;;;;;;;;;;;;;;;-144.99;100.00;52619.31;5038398;28;20059;-68
2024/02/11 02:27:37;;;;;;;;;;;;;;;-144.99;100.00;52598.94;5042617;28;19982;-69
2024/02/11 02:30:03;;;;;;;;;;;;;;;-144.99;100.00;52578.53;5038974;28;20406;-68
2024/02/11 02:32:30;;;;;;;;;;;;;;;-144.99;100.00;52570.38;5042456;28;20536;-68
2024/02/11 02:34:56;;;;;;;;;;;;;;;-144.99;100.00;52560.19;5039207;28;19967;-69
2024/02/11 02:37:23;;;;;;;;;;;;;;;-144.99;100.00;52578.53;5045557;28;19929;-70
2024/02/11 02:39:50;;;;;;;;;;;;;;;-144.99;100.00;52617.28;5034172;28;20294;-70
2024/02/11 02:42:17;;;;;;;;;;;;;;;-144.99;100.00;52574.47;5041610;28;20453;-69
2024/02/11 02:44:43;;;;;;;;;;;;;;;-144.99;100.00;52592.81;5040966;28;20937;-70
2024/02/11 02:47:11;;;;;;;;;;;;;;;-144.99;100.00;52550.00;5044058;28;20486;-69
2024/02/11 02:49:37;;;;;;;;;;;;;;;-144.99;100.00;52582.63;5042970;28;20148;-69
2024/02/11 02:52:06;;;;;;;;;;;;;;;-144.99;100.00;52609.13;5039080;28;20529;-70
2024/02/11 02:54:33;;;;;;;;;;;;;;;-144.99;100.00;52594.84;5036903;28;20055;-69
2024/02/11 02:57:01;;;;;;;;;;;;;;;-144.99;100.00;52564.28;5040835;28;19947;-70
2024/02/11 02:59:27;;;;;;;;;;;;;;;-144.99;100.00;52582.63;5043227;28;20015;-70
2024/02/11 03:01:56;;;;;;;;;;;;;;;-144.99;100.00;52558.16;5036194;28;20016;-72
2024/02/11 03:04:23;;;;;;;;;;;;;;;-144.99;100.00;52582.63;5036799;28;19929;-72
2024/02/11 03:06:49;;;;;;;;;;;;;;;-144.99;100.00;52574.47;5037494;28;20020;-72
2024/02/11 03:09:15;;;;;;;;;;;;;;;-144.99;100.00;52570.38;5038745;28;19980;-72
2024/02/11 03:11:42;;;;;;;;;;;;;;;-144.99;100.00;52605.03;5039559;28;20357;-73
2024/02/11 03:14:10;;;;;;;;;;;;;;;-144.99;100.00;52566.31;5041460;28;19956;-73
2024/02/11 03:16:45;;;;;;;;;;;;;;;-144.99;100.00;52574.47;4830051;28;10000016;-71
2024/02/11 03:19:13;;;;;;;;;;;;;;;-144.99;100.00;52582.63;5041516;28;19928;-72
2024/02/11 03:21:40;;;;;;;;;;;;;;;-144.99;100.00;52582.63;5042295;28;20443;-69
2024/02/11 03:24:07;;;;;;;;;;;;;;;-144.99;100.00;52603.00;5054931;28;19924;-69
2024/02/11 03:26:33;;;;;;;;;;;;;;;-144.99;100.00;52603.00;5049595;28;19996;-67
2024/02/11 03:29:01;;;;;;;;;;;;;;;-144.99;100.00;52582.63;5047940;28;20051;-67
2024/02/11 03:31:28;;;;;;;;;;;;;;;-144.99;100.00;52590.78;5042032;28;19929;-69
2024/02/11 03:33:55;;;;;;;;;;;;;;;-144.99;100.00;52590.78;5040948;28;20288;-69
2024/02/11 03:36:21;;;;;;;;;;;;;;;-144.99;100.00;52586.69;5041677;28;20030;-70
2024/02/11 03:38:48;;;;;;;;;;;;;;;-144.99;100.00;52611.16;5043879;28;19972;-69
2024/02/11 03:41:14;;;;;;;;;;;;;;;-144.99;100.00;52578.53;5044741;28;19925;-69
2024/02/11 03:43:41;;;;;;;;;;;;;;;-144.99;100.00;52574.47;5041716;28;19924;-70
2024/02/11 03:46:08;;;;;;;;;;;;;;;-144.99;100.00;52588.75;5045945;28;19929;-71
2024/02/11 03:48:36;;;;;;;;;;;;;;;-144.99;100.00;52576.50;5044883;28;20277;-71
2024/02/11 03:51:02;;;;;;;;;;;;;;;-144.99;100.00;52586.69;5047727;28;19928;-69
2024/02/11 03:53:28;;;;;;;;;;;;;;;-144.99;100.00;52619.31;5050836;28;20368;-71
2024/02/11 03:55:55;;;;;;;;;;;;;;;-144.99;100.00;52590.78;5046245;28;20016;-70
2024/02/11 03:58:21;;;;;;;;;;;;;;;-144.99;100.00;52592.81;5047364;28;19929;-71
2024/02/11 04:00:48;;;;;;;;;;;;;;;-144.99;100.00;52598.94;5048201;28;20462;-71
2024/02/11 04:03:16;;;;;;;;;;;;;;;-144.99;100.00;52562.25;5048761;28;19996;-71
2024/02/11 04:05:44;;;;;;;;;;;;;;;-144.99;100.00;52539.81;5045417;28;20075;-70
2024/02/11 04:08:11;;;;;;;;;;;;;;;-144.99;100.00;52582.63;5047314;28;20423;-71
2024/02/11 04:10:39;;;;;;;;;;;;;;;-144.99;100.00;52623.38;5043667;28;20261;-70
2024/02/11 04:13:06;;;;;;;;;;;;;;;-144.99;100.00;52574.47;5048636;28;19931;-71
2024/02/11 04:15:35;;;;;;;;;;;;;;;-144.99;100.00;52570.38;5048626;28;19933;-69
2024/02/11 04:18:07;;;;;;;;;;;;;;;-144.99;100.00;52584.66;5047944;28;20033;-67
2024/02/11 04:20:33;;;;;;;;;;;;;;;-144.99;100.00;52578.53;5044143;28;19936;-68
2024/02/11 04:23:03;;;;;;;;;;;;;;;-144.99;100.00;52578.53;5041240;28;19931;-67
2024/02/11 04:25:33;;;;;;;;;;;;;;;-144.99;100.00;52554.09;5051025;28;19924;-67
2024/02/11 04:27:59;;;;;;;;;;;;;;;-144.99;100.00;52582.63;5046175;28;19925;-68
2024/02/11 04:30:27;;;;;;;;;;;;;;;-144.99;100.00;52594.84;5050144;28;19925;-68
2024/02/11 04:32:54;;;;;;;;;;;;;;;-144.99;100.00;52578.53;5042074;28;19935;-69
2024/02/11 04:35:24;;;;;;;;;;;;;;;-144.99;100.00;52586.69;5044672;28;20408;-68
2024/02/11 04:37:53;;;;;;;;;;;;;;;-144.99;100.00;52547.97;5043229;28;19929;-68
2024/02/11 04:40:21;;;;;;;;;;;;;;;-144.99;100.00;52598.94;5043673;28;19939;-69
2024/02/11 04:42:53;;;;;;;;;;;;;;;-144.99;100.00;52596.88;5048544;28;19929;-69
2024/02/11 04:45:20;;;;;;;;;;;;;;;-144.99;100.00;52570.38;5046339;28;20151;-68
2024/02/11 04:47:48;;;;;;;;;;;;;;;-144.99;100.00;52594.84;5050888;28;19948;-70
2024/02/11 04:50:16;;;;;;;;;;;;;;;-144.99;100.00;52598.94;5048693;28;20023;-68
2024/02/11 04:52:47;;;;;;;;;;;;;;;-144.99;100.00;52625.44;5039518;28;20020;-70
2024/02/11 04:55:14;;;;;;;;;;;;;;;-144.99;100.00;52600.97;5040382;28;19968;-68
2024/02/11 04:57:42;;;;;;;;;;;;;;;-144.99;100.00;52570.38;5039702;28;20353;-69
2024/02/11 05:00:23;;;;;;;;;;;;;;;-144.99;100.00;52598.94;5040539;28;19964;-67
2024/02/11 05:02:50;;;;;;;;;;;;;;;-144.99;100.00;52607.09;5045009;28;19931;-70
2024/02/11 05:05:18;;;;;;;;;;;;;;;-144.99;100.00;52570.38;5039215;28;19971;-69
2024/02/11 05:07:44;;;;;;;;;;;;;;;-144.99;100.00;52623.38;5049716;28;20369;-67
2024/02/11 05:10:11;;;;;;;;;;;;;;;-144.99;100.00;52588.75;5045129;28;19932;-67
2024/02/11 05:12:38;;;;;;;;;;;;;;;-144.99;100.00;52574.47;5048411;28;19924;-69
2024/02/11 05:15:06;;;;;;;;;;;;;;;-144.99;100.00;52574.47;5042813;28;19925;-69
2024/02/11 05:17:38;;;;;;;;;;;;;;;-144.99;100.00;52598.94;5044923;28;20190;-68
2024/02/11 05:20:06;;;;;;;;;;;;;;;-144.99;100.00;52570.38;5044495;28;20361;-68
2024/02/11 05:22:33;;;;;;;;;;;;;;;-144.99;100.00;52613.19;5047417;28;19931;-68
2024/02/11 05:25:00;;;;;;;;;;;;;;;-144.99;100.00;52627.47;5041928;28;19967;-70
2024/02/11 05:27:25;;;;;;;;;;;;;;;-144.99;100.00;52611.16;5043977;28;20011;-70
2024/02/11 05:29:53;;;;;;;;;;;;;;;-144.99;100.00;52594.84;5047492;28;20455;-69
2024/02/11 05:32:21;;;;;;;;;;;;;;;-144.99;100.00;52578.53;5048661;28;20276;-68
2024/02/11 05:34:47;;;;;;;;;;;;;;;-144.99;100.00;52600.97;5046013;28;19929;-69
2024/02/11 05:37:16;;;;;;;;;;;;;;;-144.99;100.00;52570.38;5041698;28;20031;-69
2024/02/11 05:39:43;;;;;;;;;;;;;;;-144.99;100.00;52578.53;5045289;28;19929;-69
2024/02/11 05:42:11;;;;;;;;;;;;;;;-144.99;100.00;52598.94;5044512;28;19968;-69
2024/02/11 05:44:38;;;;;;;;;;;;;;;-144.99;100.00;52607.09;5045971;28;19933;-70
2024/02/11 05:47:05;;;;;;;;;;;;;;;-144.99;100.00;52578.53;5045825;28;19937;-68
2024/02/11 05:49:32;;;;;;;;;;;;;;;-144.99;100.00;52537.78;5048336;28;19925;-67
2024/02/11 05:51:58;;;;;;;;;;;;;;;-144.99;100.00;52554.09;5048829;28;20319;-69
2024/02/11 05:54:27;;;;;;;;;;;;;;;-144.99;100.00;52568.34;5041810;28;20003;-69
2024/02/11 05:56:53;;;;;;;;;;;;;;;-144.99;100.00;52590.78;5039888;28;20469;-68
2024/02/11 05:59:20;;;;;;;;;;;;;;;-144.99;100.00;52537.78;5048811;28;19929;-68
2024/02/11 06:01:48;;;;;;;;;;;;;;;-144.99;100.00;52578.53;5044693;28;20333;-68
2024/02/11 06:04:15;;;;;;;;;;;;;;;-144.99;100.00;52562.25;5044259;28;19983;-68
2024/02/11 06:06:43;;;;;;;;;;;;;;;-144.99;100.00;52617.28;5041314;28;19990;-68
2024/02/11 06:09:13;;;;;;;;;;;;;;;-144.99;100.00;52570.38;5041377;28;20023;-68
2024/02/11 06:11:39;;;;;;;;;;;;;;;-144.99;100.00;52603.00;5040016;28;19929;-70
2024/02/11 06:14:06;;;;;;;;;;;;;;;-144.99;100.00;52596.88;5042995;28;19936;-70
2024/02/11 06:16:32;;;;;;;;;;;;;;;-144.99;100.00;52570.38;5040971;28;19925;-70
2024/02/11 06:18:59;;;;;;;;;;;;;;;-144.99;100.00;52525.56;5044380;28;19996;-70
2024/02/11 06:21:26;;;;;;;;;;;;;;;-144.99;100.00;52572.44;5043679;28;19964;-69
2024/02/11 06:23:54;;;;;;;;;;;;;;;-144.99;100.00;52586.69;5044924;28;20022;-67
2024/02/11 06:26:20;;;;;;;;;;;;;;;-144.99;100.00;52556.13;5040557;28;20404;-67
2024/02/11 06:28:48;;;;;;;;;;;;;;;-144.99;100.00;52586.69;5041655;28;19928;-67
2024/02/11 06:31:14;;;;;;;;;;;;;;;-144.99;100.00;52619.31;5042816;28;19968;-66
2024/02/11 06:33:41;;;;;;;;;;;;;;;-144.99;100.00;52574.47;5045066;28;20422;-67
2024/02/11 06:36:08;;;;;;;;;;;;;;;-144.99;100.00;52570.38;5042365;28;19975;-67
2024/02/11 06:38:35;;;;;;;;;;;;;;;-144.99;100.00;52615.25;5036723;28;20037;-67
2024/02/11 06:41:03;;;;;;;;;;;;;;;-144.99;100.00;52586.69;5042557;28;19936;-66
2024/02/11 06:43:32;;;;;;;;;;;;;;;-144.99;100.00;52554.09;5040527;28;19933;-67
2024/02/11 06:45:59;;;;;;;;;;;;;;;-144.99;100.00;52590.78;5046508;28;20261;-67
2024/02/11 06:48:25;;;;;;;;;;;;;;;-144.99;100.00;52603.00;5041286;28;20031;-66
2024/02/11 06:50:52;;;;;;;;;;;;;;;-144.99;100.00;52594.84;5040524;28;19987;-67
2024/02/11 06:53:18;;;;;;;;;;;;;;;-144.99;100.00;52594.84;5046270;28;20241;-68
2024/02/11 06:55:46;;;;;;;;;;;;;;;-144.99;100.00;52574.47;5045369;28;19979;-68
2024/02/11 06:58:13;;;;;;;;;;;;;;;-144.99;100.00;52582.63;5066347;28;19916;-68
2024/02/11 07:00:40;;;;;;;;;;;;;;;-144.99;100.00;52574.47;5061415;28;19967;-68
2024/02/11 07:03:10;;;;;;;;;;;;;;;-144.99;100.00;52627.47;5065560;28;19913;-68
2024/02/11 07:05:38;;;;;;;;;;;;;;;-144.99;100.00;52574.47;5070219;28;19920;-69
2024/02/11 07:08:06;;;;;;;;;;;;;;;-144.99;100.00;52607.09;5066479;28;19968;-68
2024/02/11 07:10:33;;;;;;;;;;;;;;;-144.99;100.00;52594.84;5064443;28;19943;-68
2024/02/11 07:12:59;;;;;;;;;;;;;;;-144.99;100.00;52603.00;5062516;28;19983;-68
2024/02/11 07:15:28;;;;;;;;;;;;;;;-144.99;100.00;52566.31;5051721;28;19925;-68
2024/02/11 07:17:54;;;;;;;;;;;;;;;-144.99;100.00;52594.84;5041581;28;20412;-68
2024/02/11 07:20:22;;;;;;;;;;;;;;;-144.99;100.00;52617.28;5041791;28;20412;-69
2024/02/11 07:22:48;;;;;;;;;;;;;;;-144.99;100.00;52566.31;5042662;28;19979;-68
2024/02/11 07:25:16;;;;;;;;;;;;;;;-144.99;100.00;52582.63;5045201;28;20397;-70
2024/02/11 07:27:42;;;;;;;;;;;;;;;-144.99;100.00;52580.59;5043218;28;19929;-70
2024/02/11 07:30:11;;;;;;;;;;;;;;;-144.99;100.00;52564.28;5047754;28;19932;-70
2024/02/11 07:32:41;;;;;;;;;;;;;;;-144.99;100.00;52607.09;5046538;28;19933;-70
2024/02/11 07:35:08;;;;;;;;;;;;;;;-144.99;100.00;52586.69;5047518;28;20032;-70
2024/02/11 07:37:34;;;;;;;;;;;;;;;-144.99;100.00;52582.63;5044788;28;20035;-70
2024/02/11 07:40:04;;;;;;;;;;;;;;;-144.99;100.00;52600.97;5043052;28;19950;-68
2024/02/11 07:42:30;;;;;;;;;;;;;;;-144.99;100.00;52574.47;5049308;28;19927;-70
2024/02/11 07:44:56;;;;;;;;;;;;;;;-144.99;100.00;52586.69;5049560;28;20031;-67
2024/02/11 07:47:23;;;;;;;;;;;;;;;-144.99;100.00;52582.63;5048603;28;19939;-68
2024/02/11 07:49:51;;;;;;;;;;;;;;;-144.99;100.00;52554.09;5045761;28;19928;-69
2024/02/11 07:52:18;;;;;;;;;;;;;;;-144.99;100.00;52594.84;5038848;28;19925;-69
2024/02/11 07:54:46;;;;;;;;;;;;;;;-144.99;100.00;52592.81;5047965;28;19933;-69
2024/02/11 07:57:12;;;;;;;;;;;;;;;-144.99;100.00;52574.47;5045168;28;19988;-70
2024/02/11 07:59:39;;;;;;;;;;;;;;;-144.99;100.00;52570.38;5044157;28;20305;-68
2024/02/11 08:02:05;;;;;;;;;;;;;;;-144.99;100.00;52578.53;5044105;28;20403;-67
2024/02/11 08:04:32;;;;;;;;;;;;;;;-144.99;100.00;52558.16;5048062;28;20031;-66
2024/02/11 08:07:00;;;;;;;;;;;;;;;-144.99;100.00;52592.81;5045081;28;20039;-66
2024/02/11 08:09:26;;;;;;;;;;;;;;;-144.99;100.00;52603.00;5046409;28;19956;-68
2024/02/11 08:11:53;;;;;;;;;;;;;;;-144.99;100.00;52588.75;5047630;28;19933;-68
2024/02/11 08:14:20;;;;;;;;;;;;;;;-144.99;100.00;52594.84;5047670;28;20055;-70
2024/02/11 08:16:47;;;;;;;;;;;;;;;-144.99;100.00;52578.53;5044348;28;20393;-69
2024/02/11 08:19:14;;;;;;;;;;;;;;;-144.99;100.00;52598.94;5043780;28;19933;-70
2024/02/11 08:21:40;;;;;;;;;;;;;;;-144.99;100.00;52574.47;5047417;28;19929;-68
2024/02/11 08:24:08;;;;;;;;;;;;;;;-144.99;100.00;52605.03;5044129;28;19956;-69
2024/02/11 08:26:35;;;;;;;;;;;;;;;-144.99;100.00;52556.13;5040288;28;19935;-69
2024/02/11 08:29:03;;;;;;;;;;;;;;;-144.99;100.00;52574.47;5043173;28;20389;-69
2024/02/11 08:31:29;;;;;;;;;;;;;;;-144.99;100.00;52596.88;5043931;28;19971;-68
2024/02/11 08:33:56;;;;;;;;;;;;;;;-144.99;100.00;52558.16;5047059;28;20011;-69
2024/02/11 08:36:23;;;;;;;;;;;;;;;-144.99;100.00;52545.94;5039332;28;19929;-68
2024/02/11 08:38:50;;;;;;;;;;;;;;;-144.99;100.00;52582.63;5042174;28;19982;-68
2024/02/11 08:41:19;;;;;;;;;;;;;;;-144.99;100.00;52574.47;5044275;28;19936;-68
2024/02/11 08:43:45;;;;;;;;;;;;;;;-144.99;100.00;52619.31;5044447;28;19929;-71
2024/02/11 08:46:11;;;;;;;;;;;;;;;-144.99;100.00;52570.38;5048346;28;20019;-69
2024/02/11 08:48:38;;;;;;;;;;;;;;;-144.99;100.00;52576.50;5045740;28;19939;-70
2024/02/11 08:51:04;;;;;;;;;;;;;;;-144.99;100.00;52598.94;5045421;28;20428;-70
2024/02/11 08:53:32;;;;;;;;;;;;;;;-144.99;100.00;52619.31;5049599;28;20445;-69
2024/02/11 08:55:58;;;;;;;;;;;;;;;-144.99;100.00;52592.81;5041785;28;20037;-70
2024/02/11 08:58:27;;;;;;;;;;;;;;;-144.99;100.00;52590.78;5038990;28;20019;-70
2024/02/11 09:00:54;;;;;;;;;;;;;;;-144.99;100.00;52570.38;5043268;28;19967;-69
2024/02/11 09:03:20;;;;;;;;;;;;;;;-144.99;100.00;52574.47;5043789;28;20015;-69
2024/02/11 09:05:47;;;;;;;;;;;;;;;-144.99;100.00;52574.47;5045724;28;20082;-69
2024/02/11 09:08:15;;;;;;;;;;;;;;;-144.99;100.00;52594.84;5041360;28;20024;-69
2024/02/11 09:10:41;;;;;;;;;;;;;;;-144.99;100.00;52566.31;5046166;28;19990;-69
2024/02/11 09:13:08;;;;;;;;;;;;;;;-144.99;100.00;52619.31;5043262;28;20007;-69
2024/02/11 09:15:36;;;;;;;;;;;;;;;-144.99;100.00;52586.69;5045014;28;19975;-68
2024/02/11 09:18:03;;;;;;;;;;;;;;;-144.99;100.00;52574.47;5043593;28;19982;-69
2024/02/11 09:20:29;;;;;;;;;;;;;;;-144.99;100.00;52578.53;5044600;28;20320;-69
2024/02/11 09:22:56;;;;;;;;;;;;;;;-144.99;100.00;52582.63;5044537;28;19925;-69
2024/02/11 09:25:22;;;;;;;;;;;;;;;-144.99;100.00;52615.25;5046599;28;20397;-69
2024/02/11 09:27:48;;;;;;;;;;;;;;;-144.99;100.00;52592.81;5043529;28;20004;-69
2024/02/11 09:30:17;;;;;;;;;;;;;;;-144.99;100.00;52590.78;5045573;28;19968;-68
2024/02/11 09:32:46;;;;;;;;;;;;;;;-144.99;100.00;52590.78;5044621;28;19950;-69
2024/02/11 09:35:13;;;;;;;;;;;;;;;-144.99;100.00;52560.19;5043478;28;19928;-74
2024/02/11 09:37:42;;;;;;;;;;;;;;;-144.99;100.00;52586.69;5043390;28;19964;-75
2024/02/11 09:40:09;;;;;;;;;;;;;;;-144.99;100.00;52568.34;5038879;28;19976;-74
2024/02/11 09:42:37;;;;;;;;;;;;;;;-144.99;100.00;52594.84;5047942;28;19964;-74
2024/02/11 09:45:05;;;;;;;;;;;;;;;-144.99;100.00;52596.88;5050659;28;19938;-75
2024/02/11 09:47:33;;;;;;;;;;;;;;;-144.99;100.00;52582.63;5043726;28;19929;-73
2024/02/11 09:50:04;;;;;;;;;;;;;;;-144.99;100.00;52554.09;5043221;28;19972;-74
2024/02/11 09:52:31;;;;;;;;;;;;;;;-144.99;100.00;52598.94;5043823;28;20366;-74
2024/02/11 09:54:58;;;;;;;;;;;;;;;-144.99;100.00;52598.94;5045964;28;20035;-75
2024/02/11 09:57:25;;;;;;;;;;;;;;;-144.99;100.00;52568.34;5040550;28;19943;-72
2024/02/11 09:59:51;;;;;;;;;;;;;;;-144.99;100.00;52562.25;5044510;28;19924;-73
2024/02/11 10:02:18;;;;;;;;;;;;;;;-144.99;100.00;52592.81;5038440;28;19964;-72
2024/02/11 10:04:45;;;;;;;;;;;;;;;-144.99;100.00;52586.69;5043439;28;19936;-75
2024/02/11 10:07:22;;;;;;;;;;;;;;;-144.99;100.00;52578.53;5052280;28;20356;-76
2024/02/11 10:09:50;;;;;;;;;;;;;;;-144.99;100.00;52550.00;5048933;28;19955;-75
2024/02/11 10:12:18;;;;;;;;;;;;;;;-144.99;100.00;52582.63;5044174;28;19928;-75
2024/02/11 10:14:51;;;;;;;;;;;;;;;-144.99;100.00;52578.53;5043203;28;20480;-75
2024/02/11 10:17:18;;;;;;;;;;;;;;;-144.99;100.00;52582.63;5045553;28;20432;-76
2024/02/11 10:19:44;;;;;;;;;;;;;;;-144.99;100.00;52558.16;5044470;28;20015;-74
2024/02/11 10:22:11;;;;;;;;;;;;;;;-144.99;100.00;52574.47;5046540;28;20015;-74
2024/02/11 10:24:39;;;;;;;;;;;;;;;-144.99;100.00;52562.25;5045094;28;19936;-73
2024/02/11 10:27:05;;;;;;;;;;;;;;;-144.99;100.00;52554.09;5045774;28;19928;-75
2024/02/11 10:29:32;;;;;;;;;;;;;;;-144.99;100.00;52574.47;5046311;28;19978;-73
2024/02/11 10:31:58;;;;;;;;;;;;;;;-144.99;100.00;52562.25;5045724;28;19931;-74
2024/02/11 10:34:25;;;;;;;;;;;;;;;-144.99;100.00;52566.31;5051902;28;19932;-73
2024/02/11 10:36:53;;;;;;;;;;;;;;;-144.99;100.00;52572.44;5048465;28;20407;-71
2024/02/11 10:39:19;;;;;;;;;;;;;;;-144.99;100.00;52594.84;5047918;28;20015;-73
2024/02/11 10:41:47;;;;;;;;;;;;;;;-144.99;100.00;52574.47;5050919;28;19929;-72
2024/02/11 10:44:14;;;;;;;;;;;;;;;-144.99;100.00;52560.19;5045757;28;19929;-75
2024/02/11 10:46:41;;;;;;;;;;;;;;;-144.99;100.00;52574.47;5051260;28;20031;-75
2024/02/11 10:49:07;;;;;;;;;;;;;;;-144.99;100.00;52562.25;5042711;28;19978;-74
2024/02/11 10:51:38;;;;;;;;;;;;;;;-144.99;100.00;52582.63;5051030;28;20250;-74
2024/02/11 10:54:04;;;;;;;;;;;;;;;-144.99;100.00;52586.69;5044106;28;19947;-74
2024/02/11 10:56:31;;;;;;;;;;;;;;;-144.99;100.00;52570.38;5047132;28;20383;-73
2024/02/11 10:59:04;;;;;;;;;;;;;;;-144.99;100.00;52562.25;5046584;28;20289;-72
2024/02/11 11:01:32;;;;;;;;;;;;;;;-144.99;100.00;52550.00;5050363;28;19925;-74
2024/02/11 11:03:59;;;;;;;;;;;;;;;-144.99;100.00;52550.00;5044907;28;19971;-73
2024/02/11 11:06:27;;;;;;;;;;;;;;;-144.99;100.00;52576.50;5049877;28;19978;-73
2024/02/11 11:08:54;;;;;;;;;;;;;;;-144.99;100.00;52603.00;5047589;28;19928;-73
2024/02/11 11:11:24;;;;;;;;;;;;;;;-144.99;100.00;52556.13;5048877;28;19948;-73
2024/02/11 11:13:53;;;;;;;;;;;;;;;-144.99;100.00;52578.53;5050216;28;20024;-73
2024/02/11 11:16:24;;;;;;;;;;;;;;;-144.99;100.00;52586.69;5048544;28;19932;-73
2024/02/11 11:18:50;;;;;;;;;;;;;;;-144.99;100.00;52566.31;5049691;28;19939;-74
2024/02/11 11:21:17;;;;;;;;;;;;;;;-144.99;100.00;52562.25;5056433;28;19971;-74
2024/02/11 11:23:47;;;;;;;;;;;;;;;-144.99;100.00;52556.13;5047873;28;19925;-72
2024/02/11 11:26:13;;;;;;;;;;;;;;;-144.99;100.00;52560.19;5048797;28;19979;-72
2024/02/11 11:28:40;;;;;;;;;;;;;;;-144.99;100.00;52578.53;5051202;28;20007;-74
2024/02/11 11:31:07;;;;;;;;;;;;;;;-144.99;100.00;52570.38;5048632;28;20082;-73
2024/02/11 11:33:36;;;;;;;;;;;;;;;-144.99;100.00;52550.00;5050144;28;19964;-74
2024/02/11 11:36:03;;;;;;;;;;;;;;;-144.99;100.00;52545.94;5047569;28;19990;-73
2024/02/11 11:38:31;;;;;;;;;;;;;;;-144.99;100.00;52590.78;5048245;28;19937;-73
2024/02/11 11:40:58;;;;;;;;;;;;;;;-144.99;100.00;52570.38;5049164;28;20399;-72
2024/02/11 11:43:24;;;;;;;;;;;;;;;-144.99;100.00;52586.69;5051537;28;19991;-73
2024/02/11 11:45:53;;;;;;;;;;;;;;;-144.99;100.00;52598.94;5050995;28;20023;-76
2024/02/11 11:48:20;;;;;;;;;;;;;;;-144.99;100.00;52562.25;5053144;28;20030;-74
2024/02/11 11:50:55;;;;;;;;;;;;;;;-144.99;100.00;52550.00;5052032;28;20019;-74
2024/02/11 11:53:21;;;;;;;;;;;;;;;-144.99;100.00;52603.00;5045954;28;19929;-74
2024/02/11 11:55:51;;;;;;;;;;;;;;;-144.99;100.00;52572.44;5040557;28;19951;-73
2024/02/11 11:58:21;;;;;;;;;;;;;;;-144.99;100.00;52570.38;5059031;28;19928;-72
2024/02/11 12:00:55;;;;;;;;;;;;;;;-144.99;100.00;52590.78;5046402;28;19932;-70
2024/02/11 12:03:22;;;;;;;;;;;;;;;-144.99;100.00;52586.69;5048942;28;19968;-72
2024/02/11 12:05:49;;;;;;;;;;;;;;;-144.99;100.00;52562.25;5048296;28;19924;-73
2024/02/11 12:08:17;;;;;;;;;;;;;;;-144.99;100.00;52576.50;5044996;28;20013;-72
2024/02/11 12:10:43;;;;;;;;;;;;;;;-144.99;100.00;52570.38;5048710;28;19929;-72
2024/02/11 12:13:14;;;;;;;;;;;;;;;-144.99;100.00;52576.50;5048713;28;19929;-73
2024/02/11 12:15:40;;;;;;;;;;;;;;;-144.99;100.00;52576.50;5078858;22;19928;-68
2024/02/11 12:18:09;;;;;;;;;;;;;;;-144.99;100.00;52635.63;5069791;28;19991;-68